sensor_id;sensor_type;location;lat;lon;timestamp;pressure;altitude;pressure_sealevel;temperature;humidity
84255;BME280;74400;44.692;18.998;2023-12-20T00:01:47;99831.81;;;1.21;76.49
84255;BME280;74400;44.692;18.998;2023-12-20T00:04:13;99817.38;;;1.25;75.88
84255;BME280;74400;44.692;18.998;2023-12-20T00:06:38;99820.72;;;1.25;76.71
84255;BME280;74400;44.692;18.998;2023-12-20T00:09:04;99814.13;;;1.20;76.66
84255;BME280;74400;44.692;18.998;2023-12-20T00:11:30;99816.13;;;1.10;76.54
84255;BME280;74400;44.692;18.998;2023-12-20T00:13:55;99819.50;;;1.09;77.16
84255;BME280;74400;44.692;18.998;2023-12-20T00:16:21;99813.34;;;1.18;76.84
84255;BME280;74400;44.692;18.998;2023-12-20T00:18:47;99809.81;;;1.23;75.70
84255;BME280;74400;44.692;18.998;2023-12-20T00:21:12;99805.59;;;1.22;76.44
84255;BME280;74400;44.692;18.998;2023-12-20T00:23:38;99804.75;;;1.23;75.95
84255;BME280;74400;44.692;18.998;2023-12-20T00:26:04;99813.19;;;1.24;75.33
84255;BME280;74400;44.692;18.998;2023-12-20T00:28:29;99805.97;;;1.10;76.38
84255;BME280;74400;44.692;18.998;2023-12-20T00:30:55;99803.38;;;0.82;77.11
84255;BME280;74400;44.692;18.998;2023-12-20T00:33:21;99796.59;;;0.84;77.62
84255;BME280;74400;44.692;18.998;2023-12-20T00:35:46;99800.56;;;0.93;77.27
84255;BME280;74400;44.692;18.998;2023-12-20T00:38:12;99782.72;;;0.96;76.66
84255;BME280;74400;44.692;18.998;2023-12-20T00:40:38;99793.03;;;0.90;76.51
84255;BME280;74400;44.692;18.998;2023-12-20T00:43:03;99788.13;;;0.85;77.24
84255;BME280;74400;44.692;18.998;2023-12-20T00:45:29;99784.81;;;0.81;77.52
84255;BME280;74400;44.692;18.998;2023-12-20T00:47:55;99781.19;;;0.92;76.58
84255;BME280;74400;44.692;18.998;2023-12-20T00:50:20;99778.66;;;0.92;76.80
84255;BME280;74400;44.692;18.998;2023-12-20T00:52:47;99774.94;;;1.03;77.25
84255;BME280;74400;44.692;18.998;2023-12-20T00:55:13;99775.59;;;1.10;76.44
84255;BME280;74400;44.692;18.998;2023-12-20T00:57:39;99770.69;;;1.04;76.30
84255;BME280;74400;44.692;18.998;2023-12-20T01:00:05;99767.53;;;0.96;77.04
84255;BME280;74400;44.692;18.998;2023-12-20T01:02:31;99762.56;;;0.93;76.87
84255;BME280;74400;44.692;18.998;2023-12-20T01:04:57;99758.34;;;0.93;76.86
84255;BME280;74400;44.692;18.998;2023-12-20T01:07:23;99757.22;;;1.03;77.32
84255;BME280;74400;44.692;18.998;2023-12-20T01:09:48;99756.47;;;1.00;76.91
84255;BME280;74400;44.692;18.998;2023-12-20T01:12:14;99752.31;;;0.97;77.76
84255;BME280;74400;44.692;18.998;2023-12-20T01:14:40;99755.69;;;0.98;77.09
84255;BME280;74400;44.692;18.998;2023-12-20T01:17:05;99754.19;;;0.91;77.35
84255;BME280;74400;44.692;18.998;2023-12-20T01:19:31;99748.47;;;0.84;77.16
84255;BME280;74400;44.692;18.998;2023-12-20T01:21:56;99749.13;;;0.91;77.59
84255;BME280;74400;44.692;18.998;2023-12-20T01:24:22;99752.28;;;0.99;77.24
84255;BME280;74400;44.692;18.998;2023-12-20T01:26:48;99748.09;;;0.98;76.78
84255;BME280;74400;44.692;18.998;2023-12-20T01:29:14;99744.56;;;1.02;76.14
84255;BME280;74400;44.692;18.998;2023-12-20T01:31:40;99743.78;;;1.00;76.57
84255;BME280;74400;44.692;18.998;2023-12-20T01:34:06;99748.16;;;0.95;76.30
84255;BME280;74400;44.692;18.998;2023-12-20T01:36:32;99738.19;;;0.89;76.60
84255;BME280;74400;44.692;18.998;2023-12-20T01:38:57;99732.09;;;0.96;76.25
84255;BME280;74400;44.692;18.998;2023-12-20T01:41:23;99727.19;;;0.90;76.39
84255;BME280;74400;44.692;18.998;2023-12-20T01:43:49;99729.66;;;0.93;76.51
84255;BME280;74400;44.692;18.998;2023-12-20T01:46:14;99718.00;;;0.87;76.47
84255;BME280;74400;44.692;18.998;2023-12-20T01:48:41;99716.81;;;0.99;76.57
84255;BME280;74400;44.692;18.998;2023-12-20T01:51:07;99706.63;;;1.00;76.70
84255;BME280;74400;44.692;18.998;2023-12-20T01:53:33;99711.06;;;0.94;76.84
84255;BME280;74400;44.692;18.998;2023-12-20T01:55:59;99709.28;;;0.96;76.36
84255;BME280;74400;44.692;18.998;2023-12-20T01:58:26;99696.09;;;0.86;76.46
84255;BME280;74400;44.692;18.998;2023-12-20T02:00:52;99702.56;;;0.95;76.10
84255;BME280;74400;44.692;18.998;2023-12-20T02:03:18;99701.63;;;0.99;76.22
84255;BME280;74400;44.692;18.998;2023-12-20T02:05:44;99693.16;;;1.00;75.96
84255;BME280;74400;44.692;18.998;2023-12-20T02:08:11;99693.44;;;0.91;76.31
84255;BME280;74400;44.692;18.998;2023-12-20T02:10:37;99687.50;;;0.92;76.15
84255;BME280;74400;44.692;18.998;2023-12-20T02:13:03;99683.50;;;0.83;76.66
84255;BME280;74400;44.692;18.998;2023-12-20T02:15:29;99677.59;;;0.84;76.04
84255;BME280;74400;44.692;18.998;2023-12-20T02:17:55;99661.56;;;0.84;75.85
84255;BME280;74400;44.692;18.998;2023-12-20T02:20:21;99660.78;;;0.81;76.07
84255;BME280;74400;44.692;18.998;2023-12-20T02:22:47;99660.06;;;0.76;76.50
84255;BME280;74400;44.692;18.998;2023-12-20T02:25:12;99656.78;;;0.74;75.55
84255;BME280;74400;44.692;18.998;2023-12-20T02:27:38;99654.47;;;0.67;76.31
84255;BME280;74400;44.692;18.998;2023-12-20T02:30:05;99653.00;;;0.60;76.42
84255;BME280;74400;44.692;18.998;2023-12-20T02:32:31;99642.03;;;0.59;77.17
84255;BME280;74400;44.692;18.998;2023-12-20T02:34:57;99640.28;;;0.61;76.68
84255;BME280;74400;44.692;18.998;2023-12-20T02:37:23;99642.03;;;0.59;76.42
84255;BME280;74400;44.692;18.998;2023-12-20T02:39:49;99633.81;;;0.52;77.16
84255;BME280;74400;44.692;18.998;2023-12-20T02:42:15;99636.34;;;0.51;76.79
84255;BME280;74400;44.692;18.998;2023-12-20T02:44:40;99639.34;;;0.64;77.58
84255;BME280;74400;44.692;18.998;2023-12-20T02:47:06;99625.63;;;0.72;75.84
84255;BME280;74400;44.692;18.998;2023-12-20T02:49:32;99630.88;;;0.66;75.20
84255;BME280;74400;44.692;18.998;2023-12-20T02:51:57;99614.22;;;0.59;76.16
84255;BME280;74400;44.692;18.998;2023-12-20T02:54:23;99614.69;;;0.70;76.09
84255;BME280;74400;44.692;18.998;2023-12-20T02:56:49;99612.28;;;0.67;75.77
84255;BME280;74400;44.692;18.998;2023-12-20T02:59:15;99610.38;;;0.74;75.58
84255;BME280;74400;44.692;18.998;2023-12-20T03:04:07;99614.44;;;0.79;75.25
84255;BME280;74400;44.692;18.998;2023-12-20T03:06:32;99616.56;;;0.65;75.62
84255;BME280;74400;44.692;18.998;2023-12-20T03:08:58;99612.69;;;0.53;75.21
84255;BME280;74400;44.692;18.998;2023-12-20T03:11:26;99616.91;;;0.53;76.43
84255;BME280;74400;44.692;18.998;2023-12-20T03:13:53;99618.44;;;0.59;76.27
84255;BME280;74400;44.692;18.998;2023-12-20T03:16:18;99603.09;;;0.63;74.99
84255;BME280;74400;44.692;18.998;2023-12-20T03:18:44;99603.28;;;0.57;75.00
84255;BME280;74400;44.692;18.998;2023-12-20T03:21:09;99606.38;;;0.39;75.33
84255;BME280;74400;44.692;18.998;2023-12-20T03:23:35;99607.22;;;0.38;76.58
84255;BME280;74400;44.692;18.998;2023-12-20T03:26:01;99601.03;;;0.48;76.48
84255;BME280;74400;44.692;18.998;2023-12-20T03:28:27;99599.28;;;0.50;76.07
84255;BME280;74400;44.692;18.998;2023-12-20T03:30:53;99591.56;;;0.54;75.61
84255;BME280;74400;44.692;18.998;2023-12-20T03:33:19;99587.44;;;0.52;75.75
84255;BME280;74400;44.692;18.998;2023-12-20T03:35:44;99580.03;;;0.46;75.69
84255;BME280;74400;44.692;18.998;2023-12-20T03:38:10;99576.69;;;0.44;76.30
84255;BME280;74400;44.692;18.998;2023-12-20T03:40:36;99567.31;;;0.47;75.73
84255;BME280;74400;44.692;18.998;2023-12-20T03:43:01;99565.50;;;0.51;75.99
84255;BME280;74400;44.692;18.998;2023-12-20T03:45:27;99566.50;;;0.47;75.81
84255;BME280;74400;44.692;18.998;2023-12-20T03:47:53;99564.84;;;0.46;75.29
84255;BME280;74400;44.692;18.998;2023-12-20T03:50:22;99562.44;;;0.41;75.66
84255;BME280;74400;44.692;18.998;2023-12-20T03:52:48;99563.38;;;0.37;76.48
84255;BME280;74400;44.692;18.998;2023-12-20T03:55:14;99561.69;;;0.38;75.79
84255;BME280;74400;44.692;18.998;2023-12-20T03:57:40;99550.84;;;0.34;76.15
84255;BME280;74400;44.692;18.998;2023-12-20T04:00:07;99557.59;;;0.34;76.14
84255;BME280;74400;44.692;18.998;2023-12-20T04:02:40;99555.06;;;0.34;74.68
84255;BME280;74400;44.692;18.998;2023-12-20T04:05:07;99560.31;;;0.28;75.59
84255;BME280;74400;44.692;18.998;2023-12-20T04:07:33;99562.13;;;0.22;76.46
84255;BME280;74400;44.692;18.998;2023-12-20T04:09:59;99554.16;;;0.36;75.95
84255;BME280;74400;44.692;18.998;2023-12-20T04:12:27;99552.38;;;0.38;76.43
84255;BME280;74400;44.692;18.998;2023-12-20T04:14:52;99554.09;;;0.38;75.78
84255;BME280;74400;44.692;18.998;2023-12-20T04:17:18;99545.59;;;0.40;75.35
84255;BME280;74400;44.692;18.998;2023-12-20T04:19:44;99534.78;;;0.35;75.43
84255;BME280;74400;44.692;18.998;2023-12-20T04:22:10;99543.50;;;0.26;75.29
84255;BME280;74400;44.692;18.998;2023-12-20T04:24:36;99537.16;;;0.12;75.79
84255;BME280;74400;44.692;18.998;2023-12-20T04:27:01;99537.31;;;0.07;76.97
84255;BME280;74400;44.692;18.998;2023-12-20T04:29:27;99540.22;;;0.23;76.19
84255;BME280;74400;44.692;18.998;2023-12-20T04:31:53;99527.56;;;0.23;75.87
84255;BME280;74400;44.692;18.998;2023-12-20T04:34:19;99531.97;;;0.16;75.81
84255;BME280;74400;44.692;18.998;2023-12-20T04:36:45;99525.84;;;0.23;76.33
84255;BME280;74400;44.692;18.998;2023-12-20T04:39:12;99520.72;;;0.26;75.91
84255;BME280;74400;44.692;18.998;2023-12-20T04:41:38;99518.19;;;0.26;75.22
84255;BME280;74400;44.692;18.998;2023-12-20T04:44:05;99512.97;;;0.33;76.03
84255;BME280;74400;44.692;18.998;2023-12-20T04:46:31;99514.88;;;0.24;74.90
84255;BME280;74400;44.692;18.998;2023-12-20T04:48:57;99509.78;;;0.26;75.39
84255;BME280;74400;44.692;18.998;2023-12-20T04:51:23;99502.97;;;0.28;75.08
84255;BME280;74400;44.692;18.998;2023-12-20T04:53:49;99504.75;;;0.24;74.91
84255;BME280;74400;44.692;18.998;2023-12-20T04:56:14;99505.81;;;0.17;75.71
84255;BME280;74400;44.692;18.998;2023-12-20T04:58:41;99508.22;;;0.22;75.13
84255;BME280;74400;44.692;18.998;2023-12-20T05:01:08;99507.97;;;0.30;75.52
84255;BME280;74400;44.692;18.998;2023-12-20T05:03:34;99512.66;;;0.42;75.74
84255;BME280;74400;44.692;18.998;2023-12-20T05:06:00;99499.84;;;0.48;75.81
84255;BME280;74400;44.692;18.998;2023-12-20T05:08:26;99502.44;;;0.45;75.45
84255;BME280;74400;44.692;18.998;2023-12-20T05:10:54;99499.13;;;0.43;76.32
84255;BME280;74400;44.692;18.998;2023-12-20T05:13:20;99503.28;;;0.45;75.23
84255;BME280;74400;44.692;18.998;2023-12-20T05:15:46;99503.66;;;0.33;75.05
84255;BME280;74400;44.692;18.998;2023-12-20T05:18:12;99502.72;;;0.36;75.05
84255;BME280;74400;44.692;18.998;2023-12-20T05:20:38;99512.78;;;0.37;75.59
84255;BME280;74400;44.692;18.998;2023-12-20T05:23:04;99517.53;;;0.48;75.38
84255;BME280;74400;44.692;18.998;2023-12-20T05:25:30;99520.06;;;0.48;74.58
84255;BME280;74400;44.692;18.998;2023-12-20T05:27:56;99506.50;;;0.50;74.23
84255;BME280;74400;44.692;18.998;2023-12-20T05:30:21;99501.72;;;0.41;74.82
84255;BME280;74400;44.692;18.998;2023-12-20T05:32:47;99506.72;;;0.43;75.45
84255;BME280;74400;44.692;18.998;2023-12-20T05:35:13;99490.84;;;0.39;74.32
84255;BME280;74400;44.692;18.998;2023-12-20T05:37:39;99492.72;;;0.33;75.72
84255;BME280;74400;44.692;18.998;2023-12-20T05:40:05;99490.97;;;0.35;75.40
84255;BME280;74400;44.692;18.998;2023-12-20T05:42:31;99481.44;;;0.43;74.36
84255;BME280;74400;44.692;18.998;2023-12-20T05:44:56;99478.91;;;0.43;74.66
84255;BME280;74400;44.692;18.998;2023-12-20T05:47:48;99482.66;;;0.58;74.78
84255;BME280;74400;44.692;18.998;2023-12-20T05:50:15;99486.22;;;0.52;74.23
84255;BME280;74400;44.692;18.998;2023-12-20T05:52:40;99473.78;;;0.44;74.41
84255;BME280;74400;44.692;18.998;2023-12-20T05:55:06;99478.72;;;0.49;74.90
84255;BME280;74400;44.692;18.998;2023-12-20T05:57:35;99468.69;;;0.46;74.55
84255;BME280;74400;44.692;18.998;2023-12-20T06:04:07;99468.50;;;0.52;73.94
84255;BME280;74400;44.692;18.998;2023-12-20T06:06:32;99462.19;;;0.39;73.40
84255;BME280;74400;44.692;18.998;2023-12-20T06:08:58;99460.41;;;0.41;73.83
84255;BME280;74400;44.692;18.998;2023-12-20T06:11:24;99463.72;;;0.43;73.76
84255;BME280;74400;44.692;18.998;2023-12-20T06:13:49;99464.28;;;0.24;74.62
84255;BME280;74400;44.692;18.998;2023-12-20T06:16:18;99460.41;;;0.14;75.25
84255;BME280;74400;44.692;18.998;2023-12-20T06:18:46;99457.94;;;0.11;76.44
84255;BME280;74400;44.692;18.998;2023-12-20T06:21:11;99462.91;;;0.14;76.12
84255;BME280;74400;44.692;18.998;2023-12-20T06:23:38;99455.88;;;0.24;75.33
84255;BME280;74400;44.692;18.998;2023-12-20T06:26:04;99462.06;;;0.42;75.39
84255;BME280;74400;44.692;18.998;2023-12-20T06:28:30;99465.28;;;0.47;74.24
84255;BME280;74400;44.692;18.998;2023-12-20T06:30:56;99456.25;;;0.38;73.80
84255;BME280;74400;44.692;18.998;2023-12-20T06:33:23;99460.56;;;0.36;74.26
84255;BME280;74400;44.692;18.998;2023-12-20T06:35:50;99464.19;;;0.28;74.35
84255;BME280;74400;44.692;18.998;2023-12-20T06:38:17;99467.25;;;0.39;75.27
84255;BME280;74400;44.692;18.998;2023-12-20T06:40:43;99473.47;;;0.55;74.37
84255;BME280;74400;44.692;18.998;2023-12-20T06:43:09;99473.16;;;0.64;72.99
84255;BME280;74400;44.692;18.998;2023-12-20T06:45:34;99474.19;;;0.59;72.24
84255;BME280;74400;44.692;18.998;2023-12-20T06:48:31;99476.22;;;0.47;73.53
84255;BME280;74400;44.692;18.998;2023-12-20T06:50:59;99478.91;;;0.43;74.62
84255;BME280;74400;44.692;18.998;2023-12-20T06:53:25;99479.72;;;0.43;73.78
84255;BME280;74400;44.692;18.998;2023-12-20T06:59:11;99480.41;;;0.48;73.41
84255;BME280;74400;44.692;18.998;2023-12-20T07:01:36;99472.31;;;0.39;74.28
84255;BME280;74400;44.692;18.998;2023-12-20T07:04:03;99470.63;;;0.38;74.34
84255;BME280;74400;44.692;18.998;2023-12-20T07:06:29;99468.16;;;0.36;73.96
84255;BME280;74400;44.692;18.998;2023-12-20T07:08:55;99468.97;;;0.37;73.75
84255;BME280;74400;44.692;18.998;2023-12-20T07:11:21;99472.19;;;0.42;74.08
84255;BME280;74400;44.692;18.998;2023-12-20T07:14:08;99471.03;;;0.52;74.11
84255;BME280;74400;44.692;18.998;2023-12-20T07:16:34;99472.50;;;0.59;73.10
84255;BME280;74400;44.692;18.998;2023-12-20T07:19:00;99465.63;;;0.63;72.73
84255;BME280;74400;44.692;18.998;2023-12-20T07:21:26;99470.78;;;0.60;73.12
84255;BME280;74400;44.692;18.998;2023-12-20T07:23:51;99470.34;;;0.47;73.34
84255;BME280;74400;44.692;18.998;2023-12-20T07:26:17;99465.47;;;0.41;73.82
84255;BME280;74400;44.692;18.998;2023-12-20T07:28:43;99466.25;;;0.43;74.74
84255;BME280;74400;44.692;18.998;2023-12-20T07:31:08;99467.53;;;0.56;75.03
84255;BME280;74400;44.692;18.998;2023-12-20T07:33:34;99469.03;;;0.62;74.19
84255;BME280;74400;44.692;18.998;2023-12-20T07:36:03;99472.81;;;0.75;73.96
84255;BME280;74400;44.692;18.998;2023-12-20T07:38:28;99474.91;;;0.89;73.48
84255;BME280;74400;44.692;18.998;2023-12-20T07:41:00;99471.19;;;0.99;72.64
84255;BME280;74400;44.692;18.998;2023-12-20T07:44:01;99468.41;;;1.78;70.96
84255;BME280;74400;44.692;18.998;2023-12-20T07:46:27;99463.50;;;3.24;66.36
84255;BME280;74400;44.692;18.998;2023-12-20T07:48:53;99460.81;;;4.40;62.33
84255;BME280;74400;44.692;18.998;2023-12-20T07:51:26;99462.59;;;5.25;58.95
84255;BME280;74400;44.692;18.998;2023-12-20T07:53:53;99458.97;;;6.57;55.38
84255;BME280;74400;44.692;18.998;2023-12-20T07:56:20;99462.47;;;8.00;52.03
84255;BME280;74400;44.692;18.998;2023-12-20T07:58:46;99474.28;;;9.47;48.56
84255;BME280;74400;44.692;18.998;2023-12-20T08:01:15;99473.00;;;10.15;45.00
84255;BME280;74400;44.692;18.998;2023-12-20T08:03:41;99478.66;;;10.20;45.27
84255;BME280;74400;44.692;18.998;2023-12-20T08:06:07;99481.28;;;9.94;45.57
84255;BME280;74400;44.692;18.998;2023-12-20T08:08:35;99474.25;;;10.09;43.57
84255;BME280;74400;44.692;18.998;2023-12-20T08:11:01;99483.88;;;9.82;45.46
84255;BME280;74400;44.692;18.998;2023-12-20T08:13:27;99476.22;;;9.69;45.54
84255;BME280;74400;44.692;18.998;2023-12-20T08:15:53;99471.13;;;9.93;45.84
84255;BME280;74400;44.692;18.998;2023-12-20T08:18:25;99468.97;;;11.96;41.06
84255;BME280;74400;44.692;18.998;2023-12-20T08:20:51;99468.16;;;12.92;39.38
84255;BME280;74400;44.692;18.998;2023-12-20T08:23:43;99465.47;;;14.45;36.31
84255;BME280;74400;44.692;18.998;2023-12-20T08:26:09;99470.13;;;15.36;34.29
84255;BME280;74400;44.692;18.998;2023-12-20T08:28:36;99475.91;;;15.58;33.91
84255;BME280;74400;44.692;18.998;2023-12-20T08:31:02;99473.50;;;14.42;36.47
84255;BME280;74400;44.692;18.998;2023-12-20T08:33:27;99473.34;;;14.33;36.53
84255;BME280;74400;44.692;18.998;2023-12-20T08:35:53;99482.06;;;14.32;36.50
84255;BME280;74400;44.692;18.998;2023-12-20T08:38:19;99476.88;;;14.23;36.95
84255;BME280;74400;44.692;18.998;2023-12-20T08:44:09;99475.44;;;13.90;37.40
84255;BME280;74400;44.692;18.998;2023-12-20T08:46:35;99483.25;;;13.99;37.40
84255;BME280;74400;44.692;18.998;2023-12-20T08:49:01;99481.25;;;14.42;35.82
84255;BME280;74400;44.692;18.998;2023-12-20T08:51:27;99474.16;;;14.34;36.61
84255;BME280;74400;44.692;18.998;2023-12-20T08:53:53;99482.31;;;14.29;36.85
84255;BME280;74400;44.692;18.998;2023-12-20T08:56:19;99465.78;;;14.71;36.50
84255;BME280;74400;44.692;18.998;2023-12-20T08:58:46;99475.44;;;14.88;35.89
84255;BME280;74400;44.692;18.998;2023-12-20T09:01:13;99470.13;;;14.70;36.35
84255;BME280;74400;44.692;18.998;2023-12-20T09:03:39;99473.66;;;14.79;35.77
84255;BME280;74400;44.692;18.998;2023-12-20T09:06:05;99471.84;;;15.55;33.76
84255;BME280;74400;44.692;18.998;2023-12-20T09:08:31;99468.75;;;15.79;33.32
84255;BME280;74400;44.692;18.998;2023-12-20T09:10:57;99464.28;;;15.34;34.01
84255;BME280;74400;44.692;18.998;2023-12-20T09:20:11;99455.50;;;11.70;42.79
84255;BME280;74400;44.692;18.998;2023-12-20T09:22:41;99444.84;;;11.07;43.69
84255;BME280;74400;44.692;18.998;2023-12-20T09:25:07;99447.28;;;10.51;46.60
84255;BME280;74400;44.692;18.998;2023-12-20T09:31:06;99440.34;;;9.80;49.84
84255;BME280;74400;44.692;18.998;2023-12-20T09:33:38;99450.28;;;9.35;52.54
84255;BME280;74400;44.692;18.998;2023-12-20T09:36:04;99439.38;;;9.32;53.50
84255;BME280;74400;44.692;18.998;2023-12-20T09:38:30;99442.06;;;9.30;53.65
84255;BME280;74400;44.692;18.998;2023-12-20T09:40:56;99444.31;;;9.35;54.78
84255;BME280;74400;44.692;18.998;2023-12-20T09:43:26;99438.16;;;9.37;55.60
84255;BME280;74400;44.692;18.998;2023-12-20T09:46:00;99432.38;;;9.46;55.90
84255;BME280;74400;44.692;18.998;2023-12-20T09:48:27;99431.56;;;9.46;56.81
84255;BME280;74400;44.692;18.998;2023-12-20T09:50:54;99418.41;;;9.50;56.25
84255;BME280;74400;44.692;18.998;2023-12-20T09:53:20;99415.84;;;9.50;57.02
84255;BME280;74400;44.692;18.998;2023-12-20T09:55:48;99424.19;;;9.41;57.76
84255;BME280;74400;44.692;18.998;2023-12-20T09:58:14;99416.16;;;9.33;58.47
84255;BME280;74400;44.692;18.998;2023-12-20T10:00:41;99421.00;;;9.38;58.26
84255;BME280;74400;44.692;18.998;2023-12-20T10:03:08;99417.63;;;9.37;58.20
84255;BME280;74400;44.692;18.998;2023-12-20T10:05:34;99426.34;;;9.47;58.32
84255;BME280;74400;44.692;18.998;2023-12-20T10:08:00;99421.91;;;9.49;58.66
84255;BME280;74400;44.692;18.998;2023-12-20T10:10:27;99410.94;;;9.47;59.45
84255;BME280;74400;44.692;18.998;2023-12-20T10:13:10;99422.84;;;9.48;60.04
84255;BME280;74400;44.692;18.998;2023-12-20T10:15:37;99421.31;;;9.33;59.20
84255;BME280;74400;44.692;18.998;2023-12-20T10:18:34;99422.66;;;9.13;59.44
84255;BME280;74400;44.692;18.998;2023-12-20T10:24:33;99417.13;;;9.19;58.78
84255;BME280;74400;44.692;18.998;2023-12-20T10:27:06;99412.72;;;9.34;57.11
84255;BME280;74400;44.692;18.998;2023-12-20T10:29:36;99414.13;;;9.38;57.95
84255;BME280;74400;44.692;18.998;2023-12-20T10:32:34;99406.50;;;9.49;57.82
84255;BME280;74400;44.692;18.998;2023-12-20T10:35:03;99410.13;;;9.34;57.80
84255;BME280;74400;44.692;18.998;2023-12-20T10:37:37;99404.59;;;9.40;57.39
84255;BME280;74400;44.692;18.998;2023-12-20T10:40:04;99405.38;;;9.54;56.59
84255;BME280;74400;44.692;18.998;2023-12-20T10:42:32;99403.19;;;9.73;55.20
84255;BME280;74400;44.692;18.998;2023-12-20T10:45:05;99404.34;;;9.56;55.66
84255;BME280;74400;44.692;18.998;2023-12-20T10:47:32;99404.25;;;9.45;56.45
84255;BME280;74400;44.692;18.998;2023-12-20T10:49:59;99403.94;;;9.49;56.70
84255;BME280;74400;44.692;18.998;2023-12-20T10:52:26;99409.91;;;9.50;56.68
84255;BME280;74400;44.692;18.998;2023-12-20T10:54:53;99406.94;;;9.43;56.70
84255;BME280;74400;44.692;18.998;2023-12-20T10:57:20;99417.06;;;9.58;56.07
84255;BME280;74400;44.692;18.998;2023-12-20T10:59:48;99415.31;;;9.58;56.66
84255;BME280;74400;44.692;18.998;2023-12-20T11:02:18;99423.34;;;9.54;56.96
84255;BME280;74400;44.692;18.998;2023-12-20T11:04:49;99411.94;;;9.58;57.04
84255;BME280;74400;44.692;18.998;2023-12-20T11:14:04;99425.13;;;9.77;56.64
84255;BME280;74400;44.692;18.998;2023-12-20T11:16:37;99428.00;;;10.09;55.51
84255;BME280;74400;44.692;18.998;2023-12-20T11:23:09;99430.22;;;10.50;51.82
84255;BME280;74400;44.692;18.998;2023-12-20T11:28:10;99438.75;;;10.51;52.15
84255;BME280;74400;44.692;18.998;2023-12-20T11:33:08;99451.31;;;10.19;52.13
84255;BME280;74400;44.692;18.998;2023-12-20T11:35:34;99453.03;;;9.94;53.22
84255;BME280;74400;44.692;18.998;2023-12-20T11:38:02;99447.81;;;9.83;53.99
84255;BME280;74400;44.692;18.998;2023-12-20T11:40:28;99446.72;;;9.74;53.77
84255;BME280;74400;44.692;18.998;2023-12-20T11:42:59;99445.41;;;9.69;54.20
84255;BME280;74400;44.692;18.998;2023-12-20T11:45:25;99440.78;;;9.61;54.71
84255;BME280;74400;44.692;18.998;2023-12-20T11:47:52;99453.00;;;9.58;54.85
84255;BME280;74400;44.692;18.998;2023-12-20T11:50:22;99450.25;;;9.48;55.01
84255;BME280;74400;44.692;18.998;2023-12-20T11:52:48;99446.25;;;9.44;56.18
84255;BME280;74400;44.692;18.998;2023-12-20T11:55:14;99435.47;;;9.52;55.32
84255;BME280;74400;44.692;18.998;2023-12-20T12:01:09;99440.19;;;9.45;55.01
84255;BME280;74400;44.692;18.998;2023-12-20T12:03:37;99438.34;;;9.47;55.28
84255;BME280;74400;44.692;18.998;2023-12-20T12:06:07;99440.81;;;9.36;55.63
84255;BME280;74400;44.692;18.998;2023-12-20T12:08:33;99440.19;;;9.32;55.51
84255;BME280;74400;44.692;18.998;2023-12-20T12:11:21;99421.94;;;9.37;55.43
84255;BME280;74400;44.692;18.998;2023-12-20T12:13:47;99422.97;;;9.47;55.09
84255;BME280;74400;44.692;18.998;2023-12-20T12:16:17;99422.34;;;9.43;54.98
84255;BME280;74400;44.692;18.998;2023-12-20T12:18:43;99420.69;;;9.42;55.43
84255;BME280;74400;44.692;18.998;2023-12-20T12:21:09;99415.34;;;9.45;54.17
84255;BME280;74400;44.692;18.998;2023-12-20T12:23:35;99419.88;;;9.42;54.23
84255;BME280;74400;44.692;18.998;2023-12-20T12:26:04;99421.81;;;9.38;56.13
84255;BME280;74400;44.692;18.998;2023-12-20T12:28:29;99415.97;;;9.49;54.62
84255;BME280;74400;44.692;18.998;2023-12-20T12:30:58;99413.09;;;9.54;55.20
84255;BME280;74400;44.692;18.998;2023-12-20T12:33:27;99410.59;;;9.52;55.45
84255;BME280;74400;44.692;18.998;2023-12-20T12:35:53;99411.22;;;9.56;55.30
84255;BME280;74400;44.692;18.998;2023-12-20T12:38:21;99423.56;;;9.50;56.12
84255;BME280;74400;44.692;18.998;2023-12-20T12:40:47;99428.41;;;9.42;56.73
84255;BME280;74400;44.692;18.998;2023-12-20T12:43:12;99429.09;;;9.44;56.24
84255;BME280;74400;44.692;18.998;2023-12-20T12:45:38;99432.16;;;9.62;55.39
84255;BME280;74400;44.692;18.998;2023-12-20T12:48:04;99436.13;;;9.79;55.29
84255;BME280;74400;44.692;18.998;2023-12-20T12:50:32;99435.31;;;10.02;54.38
84255;BME280;74400;44.692;18.998;2023-12-20T12:52:57;99424.41;;;10.12;53.87
84255;BME280;74400;44.692;18.998;2023-12-20T12:55:33;99428.06;;;10.20;53.00
84255;BME280;74400;44.692;18.998;2023-12-20T12:58:02;99421.03;;;10.35;53.34
84255;BME280;74400;44.692;18.998;2023-12-20T13:00:28;99428.84;;;10.34;52.69
84255;BME280;74400;44.692;18.998;2023-12-20T13:02:54;99422.72;;;10.23;53.08
84255;BME280;74400;44.692;18.998;2023-12-20T13:05:20;99427.44;;;10.29;53.33
84255;BME280;74400;44.692;18.998;2023-12-20T13:07:45;99427.03;;;10.23;52.65
84255;BME280;74400;44.692;18.998;2023-12-20T13:10:11;99433.38;;;10.30;52.88
84255;BME280;74400;44.692;18.998;2023-12-20T13:16:09;99435.56;;;10.23;53.48
84255;BME280;74400;44.692;18.998;2023-12-20T13:18:36;99437.66;;;10.18;53.89
84255;BME280;74400;44.692;18.998;2023-12-20T13:21:03;99425.13;;;10.14;53.20
84255;BME280;74400;44.692;18.998;2023-12-20T13:23:28;99434.13;;;10.19;53.10
84255;BME280;74400;44.692;18.998;2023-12-20T13:25:54;99425.81;;;10.16;52.82
84255;BME280;74400;44.692;18.998;2023-12-20T13:28:20;99431.81;;;10.03;53.56
84255;BME280;74400;44.692;18.998;2023-12-20T13:30:46;99431.63;;;10.07;53.57
84255;BME280;74400;44.692;18.998;2023-12-20T13:33:11;99430.81;;;10.06;53.69
84255;BME280;74400;44.692;18.998;2023-12-20T13:35:37;99428.78;;;9.98;53.72
84255;BME280;74400;44.692;18.998;2023-12-20T13:38:04;99425.47;;;9.96;53.78
84255;BME280;74400;44.692;18.998;2023-12-20T13:40:30;99433.00;;;9.99;54.04
84255;BME280;74400;44.692;18.998;2023-12-20T13:42:57;99439.22;;;10.08;53.39
84255;BME280;74400;44.692;18.998;2023-12-20T13:45:23;99444.75;;;10.15;53.10
84255;BME280;74400;44.692;18.998;2023-12-20T13:47:50;99443.91;;;10.14;53.55